sensor_id;sensor_type;location;lat;lon;timestamp;P1;durP1;ratioP1;P2;durP2;ratioP2
20653;SDS011;21083;50.898;4.902;2023-02-15T00:00:55;60.25;;;29.73;;
20653;SDS011;21083;50.898;4.902;2023-02-15T00:03:31;61.58;;;29.70;;
20653;SDS011;21083;50.898;4.902;2023-02-15T00:05:58;66.60;;;32.60;;
20653;SDS011;21083;50.898;4.902;2023-02-15T00:08:25;61.58;;;30.08;;
20653;SDS011;21083;50.898;4.902;2023-02-15T00:10:52;64.93;;;29.15;;
20653;SDS011;21083;50.898;4.902;2023-02-15T00:13:19;62.17;;;30.05;;
20653;SDS011;21083;50.898;4.902;2023-02-15T00:15:46;66.55;;;30.05;;
20653;SDS011;21083;50.898;4.902;2023-02-15T00:18:15;62.40;;;28.63;;
20653;SDS011;21083;50.898;4.902;2023-02-15T00:20:42;63.47;;;30.02;;
20653;SDS011;21083;50.898;4.902;2023-02-15T00:23:08;62.00;;;28.27;;
20653;SDS011;21083;50.898;4.902;2023-02-15T00:25:35;71.45;;;31.75;;
20653;SDS011;21083;50.898;4.902;2023-02-15T00:28:02;71.72;;;32.50;;
20653;SDS011;21083;50.898;4.902;2023-02-15T00:30:29;62.88;;;30.05;;
20653;SDS011;21083;50.898;4.902;2023-02-15T00:32:57;68.60;;;32.20;;
20653;SDS011;21083;50.898;4.902;2023-02-15T00:35:25;71.35;;;32.03;;
20653;SDS011;21083;50.898;4.902;2023-02-15T00:37:52;67.00;;;32.63;;
20653;SDS011;21083;50.898;4.902;2023-02-15T00:40:19;64.40;;;30.85;;
20653;SDS011;21083;50.898;4.902;2023-02-15T00:42:46;68.85;;;31.70;;
20653;SDS011;21083;50.898;4.902;2023-02-15T00:45:13;64.72;;;30.33;;
20653;SDS011;21083;50.898;4.902;2023-02-15T00:47:40;63.65;;;30.42;;
20653;SDS011;21083;50.898;4.902;2023-02-15T00:50:07;64.43;;;31.00;;
20653;SDS011;21083;50.898;4.902;2023-02-15T00:52:35;63.30;;;29.15;;
20653;SDS011;21083;50.898;4.902;2023-02-15T00:55:02;61.42;;;29.48;;
20653;SDS011;21083;50.898;4.902;2023-02-15T00:57:29;64.18;;;30.17;;
20653;SDS011;21083;50.898;4.902;2023-02-15T00:59:56;58.78;;;29.60;;
20653;SDS011;21083;50.898;4.902;2023-02-15T01:02:23;65.00;;;30.65;;
20653;SDS011;21083;50.898;4.902;2023-02-15T01:04:50;63.70;;;29.70;;
20653;SDS011;21083;50.898;4.902;2023-02-15T01:07:17;59.20;;;27.58;;
20653;SDS011;21083;50.898;4.902;2023-02-15T01:09:45;66.65;;;30.23;;
20653;SDS011;21083;50.898;4.902;2023-02-15T01:12:12;63.25;;;30.88;;
20653;SDS011;21083;50.898;4.902;2023-02-15T01:14:39;58.42;;;29.20;;
20653;SDS011;21083;50.898;4.902;2023-02-15T01:17:06;67.35;;;30.05;;
20653;SDS011;21083;50.898;4.902;2023-02-15T01:19:32;67.07;;;30.83;;
20653;SDS011;21083;50.898;4.902;2023-02-15T01:21:59;58.97;;;28.65;;
20653;SDS011;21083;50.898;4.902;2023-02-15T01:24:26;64.40;;;29.92;;
20653;SDS011;21083;50.898;4.902;2023-02-15T01:26:56;59.47;;;29.77;;
20653;SDS011;21083;50.898;4.902;2023-02-15T01:29:23;57.80;;;27.70;;
20653;SDS011;21083;50.898;4.902;2023-02-15T01:31:50;59.45;;;29.17;;
20653;SDS011;21083;50.898;4.902;2023-02-15T01:34:17;58.40;;;28.00;;
20653;SDS011;21083;50.898;4.902;2023-02-15T01:36:43;59.83;;;28.13;;
20653;SDS011;21083;50.898;4.902;2023-02-15T01:39:10;57.38;;;28.02;;
20653;SDS011;21083;50.898;4.902;2023-02-15T01:41:37;56.50;;;26.85;;
20653;SDS011;21083;50.898;4.902;2023-02-15T01:47:02;57.17;;;27.05;;
20653;SDS011;21083;50.898;4.902;2023-02-15T01:49:29;64.20;;;27.35;;
20653;SDS011;21083;50.898;4.902;2023-02-15T01:51:58;60.33;;;28.50;;
20653;SDS011;21083;50.898;4.902;2023-02-15T01:54:27;59.03;;;28.13;;
20653;SDS011;21083;50.898;4.902;2023-02-15T01:56:58;60.03;;;29.17;;
20653;SDS011;21083;50.898;4.902;2023-02-15T01:59:28;55.83;;;26.63;;
20653;SDS011;21083;50.898;4.902;2023-02-15T02:01:57;68.22;;;28.92;;
20653;SDS011;21083;50.898;4.902;2023-02-15T02:04:29;55.35;;;28.45;;
20653;SDS011;21083;50.898;4.902;2023-02-15T02:07:01;67.05;;;28.80;;
20653;SDS011;21083;50.898;4.902;2023-02-15T02:09:30;60.80;;;27.25;;
20653;SDS011;21083;50.898;4.902;2023-02-15T02:11:57;60.50;;;28.65;;
20653;SDS011;21083;50.898;4.902;2023-02-15T02:14:24;54.25;;;27.50;;
20653;SDS011;21083;50.898;4.902;2023-02-15T02:16:53;59.28;;;27.40;;
20653;SDS011;21083;50.898;4.902;2023-02-15T02:31:54;57.63;;;27.38;;
20653;SDS011;21083;50.898;4.902;2023-02-15T02:34:52;56.45;;;26.77;;
20653;SDS011;21083;50.898;4.902;2023-02-15T02:37:24;53.97;;;26.60;;
20653;SDS011;21083;50.898;4.902;2023-02-15T02:39:59;58.67;;;26.85;;
20653;SDS011;21083;50.898;4.902;2023-02-15T02:42:32;55.50;;;25.98;;
20653;SDS011;21083;50.898;4.902;2023-02-15T02:45:04;56.40;;;26.75;;
20653;SDS011;21083;50.898;4.902;2023-02-15T02:47:35;54.72;;;26.52;;
20653;SDS011;21083;50.898;4.902;2023-02-15T02:50:07;58.10;;;27.40;;
20653;SDS011;21083;50.898;4.902;2023-02-15T02:52:37;54.08;;;25.67;;
20653;SDS011;21083;50.898;4.902;2023-02-15T02:55:07;54.83;;;25.10;;
20653;SDS011;21083;50.898;4.902;2023-02-15T02:57:40;52.78;;;25.88;;
20653;SDS011;21083;50.898;4.902;2023-02-15T03:00:13;49.33;;;24.85;;
20653;SDS011;21083;50.898;4.902;2023-02-15T03:02:42;58.42;;;26.20;;
20653;SDS011;21083;50.898;4.902;2023-02-15T03:05:16;53.33;;;24.90;;
20653;SDS011;21083;50.898;4.902;2023-02-15T03:07:47;60.28;;;27.42;;
20653;SDS011;21083;50.898;4.902;2023-02-15T03:10:17;61.17;;;26.95;;
20653;SDS011;21083;50.898;4.902;2023-02-15T03:12:46;51.67;;;26.33;;
20653;SDS011;21083;50.898;4.902;2023-02-15T03:15:14;59.08;;;25.58;;
20653;SDS011;21083;50.898;4.902;2023-02-15T03:17:45;51.85;;;25.05;;
20653;SDS011;21083;50.898;4.902;2023-02-15T03:20:18;55.28;;;25.60;;
20653;SDS011;21083;50.898;4.902;2023-02-15T03:22:51;56.38;;;27.15;;
20653;SDS011;21083;50.898;4.902;2023-02-15T03:25:22;59.00;;;27.63;;
20653;SDS011;21083;50.898;4.902;2023-02-15T03:27:52;56.80;;;26.63;;
20653;SDS011;21083;50.898;4.902;2023-02-15T03:30:24;50.70;;;26.13;;
20653;SDS011;21083;50.898;4.902;2023-02-15T03:32:52;59.05;;;26.35;;
20653;SDS011;21083;50.898;4.902;2023-02-15T03:35:24;54.35;;;26.45;;
20653;SDS011;21083;50.898;4.902;2023-02-15T03:37:57;54.88;;;25.55;;
20653;SDS011;21083;50.898;4.902;2023-02-15T03:40:28;55.42;;;27.30;;
20653;SDS011;21083;50.898;4.902;2023-02-15T03:43:15;57.60;;;25.27;;
20653;SDS011;21083;50.898;4.902;2023-02-15T03:45:51;52.90;;;25.85;;
20653;SDS011;21083;50.898;4.902;2023-02-15T03:48:24;57.45;;;26.20;;
20653;SDS011;21083;50.898;4.902;2023-02-15T03:50:55;58.85;;;26.15;;
20653;SDS011;21083;50.898;4.902;2023-02-15T03:53:43;53.30;;;25.92;;
20653;SDS011;21083;50.898;4.902;2023-02-15T03:56:13;53.67;;;26.15;;
20653;SDS011;21083;50.898;4.902;2023-02-15T03:58:40;60.00;;;27.02;;
20653;SDS011;21083;50.898;4.902;2023-02-15T04:01:25;59.65;;;27.60;;
20653;SDS011;21083;50.898;4.902;2023-02-15T04:04:16;60.00;;;27.48;;
20653;SDS011;21083;50.898;4.902;2023-02-15T04:06:47;53.70;;;26.25;;
20653;SDS011;21083;50.898;4.902;2023-02-15T04:09:14;58.58;;;28.05;;
20653;SDS011;21083;50.898;4.902;2023-02-15T04:11:59;56.92;;;27.63;;
20653;SDS011;21083;50.898;4.902;2023-02-15T04:14:25;62.95;;;28.10;;
20653;SDS011;21083;50.898;4.902;2023-02-15T04:17:10;63.00;;;28.15;;
20653;SDS011;21083;50.898;4.902;2023-02-15T04:19:37;60.03;;;28.27;;
20653;SDS011;21083;50.898;4.902;2023-02-15T04:22:22;58.78;;;25.67;;
20653;SDS011;21083;50.898;4.902;2023-02-15T04:25:07;64.43;;;28.35;;
20653;SDS011;21083;50.898;4.902;2023-02-15T04:27:37;58.83;;;28.85;;
20653;SDS011;21083;50.898;4.902;2023-02-15T04:30:05;57.13;;;26.75;;
20653;SDS011;21083;50.898;4.902;2023-02-15T04:32:33;61.45;;;28.20;;
20653;SDS011;21083;50.898;4.902;2023-02-15T04:35:01;62.65;;;28.60;;
20653;SDS011;21083;50.898;4.902;2023-02-15T04:37:30;60.20;;;27.92;;
20653;SDS011;21083;50.898;4.902;2023-02-15T04:39:57;62.67;;;28.25;;
20653;SDS011;21083;50.898;4.902;2023-02-15T04:42:24;63.97;;;27.50;;
20653;SDS011;21083;50.898;4.902;2023-02-15T04:44:51;57.80;;;28.08;;
20653;SDS011;21083;50.898;4.902;2023-02-15T04:47:18;65.43;;;28.05;;
20653;SDS011;21083;50.898;4.902;2023-02-15T04:49:45;57.85;;;26.75;;
20653;SDS011;21083;50.898;4.902;2023-02-15T04:52:12;60.63;;;27.08;;
20653;SDS011;21083;50.898;4.902;2023-02-15T04:54:40;62.83;;;27.63;;
20653;SDS011;21083;50.898;4.902;2023-02-15T04:57:07;59.50;;;27.48;;
20653;SDS011;21083;50.898;4.902;2023-02-15T04:59:34;56.33;;;26.48;;
20653;SDS011;21083;50.898;4.902;2023-02-15T05:02:01;64.97;;;27.05;;
20653;SDS011;21083;50.898;4.902;2023-02-15T05:04:29;59.92;;;25.95;;
20653;SDS011;21083;50.898;4.902;2023-02-15T05:06:56;56.40;;;26.35;;
20653;SDS011;21083;50.898;4.902;2023-02-15T05:09:22;55.63;;;26.40;;
20653;SDS011;21083;50.898;4.902;2023-02-15T05:11:51;59.33;;;24.92;;
20653;SDS011;21083;50.898;4.902;2023-02-15T05:14:17;58.13;;;26.75;;
20653;SDS011;21083;50.898;4.902;2023-02-15T05:16:44;62.30;;;27.38;;
20653;SDS011;21083;50.898;4.902;2023-02-15T05:19:11;55.35;;;25.58;;
20653;SDS011;21083;50.898;4.902;2023-02-15T05:21:38;59.00;;;26.02;;
20653;SDS011;21083;50.898;4.902;2023-02-15T05:24:05;55.28;;;25.65;;
20653;SDS011;21083;50.898;4.902;2023-02-15T05:26:55;57.40;;;27.45;;
20653;SDS011;21083;50.898;4.902;2023-02-15T05:29:39;57.97;;;26.60;;
20653;SDS011;21083;50.898;4.902;2023-02-15T05:32:06;57.58;;;27.40;;
20653;SDS011;21083;50.898;4.902;2023-02-15T05:34:33;59.22;;;27.75;;
20653;SDS011;21083;50.898;4.902;2023-02-15T05:37:00;58.03;;;27.90;;
20653;SDS011;21083;50.898;4.902;2023-02-15T05:39:26;57.50;;;27.80;;
20653;SDS011;21083;50.898;4.902;2023-02-15T05:41:57;63.58;;;28.20;;
20653;SDS011;21083;50.898;4.902;2023-02-15T05:44:25;66.55;;;27.65;;
20653;SDS011;21083;50.898;4.902;2023-02-15T05:46:51;60.85;;;27.83;;
20653;SDS011;21083;50.898;4.902;2023-02-15T05:49:19;57.72;;;28.08;;
20653;SDS011;21083;50.898;4.902;2023-02-15T05:51:45;61.35;;;28.60;;
20653;SDS011;21083;50.898;4.902;2023-02-15T05:54:12;64.50;;;28.88;;
20653;SDS011;21083;50.898;4.902;2023-02-15T05:56:39;60.08;;;27.17;;
20653;SDS011;21083;50.898;4.902;2023-02-15T05:59:07;61.45;;;26.83;;
20653;SDS011;21083;50.898;4.902;2023-02-15T06:01:34;63.78;;;28.52;;
20653;SDS011;21083;50.898;4.902;2023-02-15T06:04:02;66.32;;;28.35;;
20653;SDS011;21083;50.898;4.902;2023-02-15T06:06:28;72.10;;;28.98;;
20653;SDS011;21083;50.898;4.902;2023-02-15T06:08:55;60.33;;;28.40;;
20653;SDS011;21083;50.898;4.902;2023-02-15T06:11:22;65.22;;;29.00;;
20653;SDS011;21083;50.898;4.902;2023-02-15T06:13:49;64.82;;;29.40;;
20653;SDS011;21083;50.898;4.902;2023-02-15T06:16:17;62.17;;;28.40;;
20653;SDS011;21083;50.898;4.902;2023-02-15T06:18:44;61.35;;;27.80;;
20653;SDS011;21083;50.898;4.902;2023-02-15T06:21:11;58.80;;;28.10;;
20653;SDS011;21083;50.898;4.902;2023-02-15T06:23:38;61.13;;;28.98;;
20653;SDS011;21083;50.898;4.902;2023-02-15T06:26:05;61.75;;;28.85;;
20653;SDS011;21083;50.898;4.902;2023-02-15T06:28:31;57.50;;;26.83;;
20653;SDS011;21083;50.898;4.902;2023-02-15T06:30:58;59.40;;;27.73;;
20653;SDS011;21083;50.898;4.902;2023-02-15T06:33:26;63.10;;;28.90;;
20653;SDS011;21083;50.898;4.902;2023-02-15T06:35:55;59.28;;;29.15;;
20653;SDS011;21083;50.898;4.902;2023-02-15T06:38:22;61.72;;;27.20;;
20653;SDS011;21083;50.898;4.902;2023-02-15T06:40:49;59.75;;;26.73;;
20653;SDS011;21083;50.898;4.902;2023-02-15T06:43:16;65.22;;;29.58;;
20653;SDS011;21083;50.898;4.902;2023-02-15T06:45:43;58.95;;;27.48;;
20653;SDS011;21083;50.898;4.902;2023-02-15T06:48:09;57.88;;;26.92;;
20653;SDS011;21083;50.898;4.902;2023-02-15T06:50:38;63.03;;;29.08;;
20653;SDS011;21083;50.898;4.902;2023-02-15T06:53:05;69.20;;;29.45;;
20653;SDS011;21083;50.898;4.902;2023-02-15T06:55:32;61.95;;;28.77;;
20653;SDS011;21083;50.898;4.902;2023-02-15T06:57:59;64.35;;;28.50;;
20653;SDS011;21083;50.898;4.902;2023-02-15T07:00:26;58.00;;;26.90;;
20653;SDS011;21083;50.898;4.902;2023-02-15T07:02:53;64.65;;;28.40;;
20653;SDS011;21083;50.898;4.902;2023-02-15T07:05:22;60.45;;;27.90;;
20653;SDS011;21083;50.898;4.902;2023-02-15T07:07:51;56.55;;;26.95;;
20653;SDS011;21083;50.898;4.902;2023-02-15T07:10:18;59.25;;;28.10;;
20653;SDS011;21083;50.898;4.902;2023-02-15T07:12:44;60.42;;;28.27;;
20653;SDS011;21083;50.898;4.902;2023-02-15T07:15:12;59.10;;;28.67;;
20653;SDS011;21083;50.898;4.902;2023-02-15T07:17:40;64.53;;;29.88;;
20653;SDS011;21083;50.898;4.902;2023-02-15T07:20:08;68.20;;;28.02;;
20653;SDS011;21083;50.898;4.902;2023-02-15T07:22:36;60.35;;;26.65;;
20653;SDS011;21083;50.898;4.902;2023-02-15T07:25:05;60.75;;;27.75;;
20653;SDS011;21083;50.898;4.902;2023-02-15T07:27:34;59.80;;;28.00;;
20653;SDS011;21083;50.898;4.902;2023-02-15T07:30:02;60.88;;;27.02;;
20653;SDS011;21083;50.898;4.902;2023-02-15T07:32:30;63.25;;;28.15;;
20653;SDS011;21083;50.898;4.902;2023-02-15T07:34:58;62.70;;;27.85;;
20653;SDS011;21083;50.898;4.902;2023-02-15T07:37:25;65.60;;;27.95;;
20653;SDS011;21083;50.898;4.902;2023-02-15T07:39:52;61.17;;;27.80;;
20653;SDS011;21083;50.898;4.902;2023-02-15T07:42:21;62.65;;;27.90;;
20653;SDS011;21083;50.898;4.902;2023-02-15T07:44:48;55.15;;;26.00;;
20653;SDS011;21083;50.898;4.902;2023-02-15T07:47:15;57.97;;;25.02;;
20653;SDS011;21083;50.898;4.902;2023-02-15T07:49:41;58.95;;;26.73;;
20653;SDS011;21083;50.898;4.902;2023-02-15T07:52:08;61.22;;;26.00;;
20653;SDS011;21083;50.898;4.902;2023-02-15T07:54:35;58.78;;;27.17;;
20653;SDS011;21083;50.898;4.902;2023-02-15T07:57:02;59.28;;;28.35;;
20653;SDS011;21083;50.898;4.902;2023-02-15T07:59:31;56.03;;;26.17;;
20653;SDS011;21083;50.898;4.902;2023-02-15T08:01:58;58.10;;;26.58;;
20653;SDS011;21083;50.898;4.902;2023-02-15T08:04:25;51.58;;;24.15;;
20653;SDS011;21083;50.898;4.902;2023-02-15T08:06:52;55.53;;;26.60;;
20653;SDS011;21083;50.898;4.902;2023-02-15T08:09:20;50.00;;;24.60;;
20653;SDS011;21083;50.898;4.902;2023-02-15T08:11:47;49.10;;;24.20;;
20653;SDS011;21083;50.898;4.902;2023-02-15T08:14:15;54.15;;;24.42;;
20653;SDS011;21083;50.898;4.902;2023-02-15T08:16:45;53.10;;;24.95;;
20653;SDS011;21083;50.898;4.902;2023-02-15T08:19:14;58.03;;;25.13;;
20653;SDS011;21083;50.898;4.902;2023-02-15T08:21:42;56.22;;;25.27;;
20653;SDS011;21083;50.898;4.902;2023-02-15T08:24:10;54.60;;;24.48;;
20653;SDS011;21083;50.898;4.902;2023-02-15T08:26:39;55.92;;;24.90;;
20653;SDS011;21083;50.898;4.902;2023-02-15T08:29:07;56.58;;;24.95;;
20653;SDS011;21083;50.898;4.902;2023-02-15T08:31:34;52.83;;;24.20;;
20653;SDS011;21083;50.898;4.902;2023-02-15T08:34:04;54.75;;;23.75;;
20653;SDS011;21083;50.898;4.902;2023-02-15T08:36:31;54.75;;;23.15;;
20653;SDS011;21083;50.898;4.902;2023-02-15T08:38:59;52.35;;;24.13;;
20653;SDS011;21083;50.898;4.902;2023-02-15T08:41:28;52.67;;;22.95;;
20653;SDS011;21083;50.898;4.902;2023-02-15T08:43:57;53.63;;;23.60;;
20653;SDS011;21083;50.898;4.902;2023-02-15T08:46:25;56.73;;;25.00;;
20653;SDS011;21083;50.898;4.902;2023-02-15T08:48:54;50.63;;;23.52;;
20653;SDS011;21083;50.898;4.902;2023-02-15T08:51:23;48.13;;;23.13;;
20653;SDS011;21083;50.898;4.902;2023-02-15T08:53:52;49.28;;;22.80;;
20653;SDS011;21083;50.898;4.902;2023-02-15T08:56:20;50.65;;;23.42;;
20653;SDS011;21083;50.898;4.902;2023-02-15T08:58:48;55.95;;;24.30;;
20653;SDS011;21083;50.898;4.902;2023-02-15T09:01:16;51.15;;;24.00;;
20653;SDS011;21083;50.898;4.902;2023-02-15T09:03:45;50.47;;;24.48;;
20653;SDS011;21083;50.898;4.902;2023-02-15T09:06:13;52.85;;;23.63;;
20653;SDS011;21083;50.898;4.902;2023-02-15T09:08:41;56.10;;;22.98;;
20653;SDS011;21083;50.898;4.902;2023-02-15T09:11:09;50.25;;;21.10;;
20653;SDS011;21083;50.898;4.902;2023-02-15T09:13:37;45.72;;;21.77;;
20653;SDS011;21083;50.898;4.902;2023-02-15T09:16:05;45.90;;;20.85;;
20653;SDS011;21083;50.898;4.902;2023-02-15T09:18:34;53.03;;;22.17;;
20653;SDS011;21083;50.898;4.902;2023-02-15T09:21:06;46.90;;;19.98;;
20653;SDS011;21083;50.898;4.902;2023-02-15T09:23:34;41.85;;;20.00;;
20653;SDS011;21083;50.898;4.902;2023-02-15T09:26:04;43.95;;;21.60;;
20653;SDS011;21083;50.898;4.902;2023-02-15T09:28:32;45.38;;;21.25;;
20653;SDS011;21083;50.898;4.902;2023-02-15T09:31:06;46.92;;;20.48;;
20653;SDS011;21083;50.898;4.902;2023-02-15T09:33:34;51.60;;;21.92;;
20653;SDS011;21083;50.898;4.902;2023-02-15T09:36:02;44.22;;;22.00;;
20653;SDS011;21083;50.898;4.902;2023-02-15T09:38:29;49.63;;;21.08;;
20653;SDS011;21083;50.898;4.902;2023-02-15T09:40:58;43.08;;;21.55;;
20653;SDS011;21083;50.898;4.902;2023-02-15T09:43:42;47.67;;;20.55;;
20653;SDS011;21083;50.898;4.902;2023-02-15T09:46:27;41.30;;;19.73;;
20653;SDS011;21083;50.898;4.902;2023-02-15T09:49:08;45.00;;;19.27;;
20653;SDS011;21083;50.898;4.902;2023-02-15T09:51:49;43.70;;;20.40;;
20653;SDS011;21083;50.898;4.902;2023-02-15T09:54:32;40.70;;;19.95;;
20653;SDS011;21083;50.898;4.902;2023-02-15T09:57:10;46.08;;;19.85;;
20653;SDS011;21083;50.898;4.902;2023-02-15T09:59:51;41.47;;;19.27;;
20653;SDS011;21083;50.898;4.902;2023-02-15T10:02:28;46.28;;;18.92;;
20653;SDS011;21083;50.898;4.902;2023-02-15T10:05:08;40.30;;;20.02;;
20653;SDS011;21083;50.898;4.902;2023-02-15T10:07:58;42.65;;;19.30;;
20653;SDS011;21083;50.898;4.902;2023-02-15T10:10:45;37.85;;;18.40;;
20653;SDS011;21083;50.898;4.902;2023-02-15T10:13:26;42.72;;;19.75;;
20653;SDS011;21083;50.898;4.902;2023-02-15T10:16:07;40.92;;;19.70;;
20653;SDS011;21083;50.898;4.902;2023-02-15T10:18:48;44.10;;;20.02;;
20653;SDS011;21083;50.898;4.902;2023-02-15T10:21:25;37.70;;;19.08;;
20653;SDS011;21083;50.898;4.902;2023-02-15T10:24:08;43.28;;;19.92;;
20653;SDS011;21083;50.898;4.902;2023-02-15T10:26:56;46.35;;;19.50;;
20653;SDS011;21083;50.898;4.902;2023-02-15T10:29:30;42.38;;;18.98;;
20653;SDS011;21083;50.898;4.902;2023-02-15T10:32:04;41.08;;;18.48;;
20653;SDS011;21083;50.898;4.902;2023-02-15T10:34:42;44.50;;;19.30;;
20653;SDS011;21083;50.898;4.902;2023-02-15T10:37:23;40.00;;;19.40;;
20653;SDS011;21083;50.898;4.902;2023-02-15T10:40:02;40.58;;;19.52;;
20653;SDS011;21083;50.898;4.902;2023-02-15T10:42:39;40.47;;;18.88;;
20653;SDS011;21083;50.898;4.902;2023-02-15T10:45:23;38.05;;;18.08;;
20653;SDS011;21083;50.898;4.902;2023-02-15T10:48:03;43.85;;;19.00;;
20653;SDS011;21083;50.898;4.902;2023-02-15T10:50:47;36.03;;;17.33;;
20653;SDS011;21083;50.898;4.902;2023-02-15T10:56:31;39.63;;;17.23;;
20653;SDS011;21083;50.898;4.902;2023-02-15T10:59:17;35.92;;;18.42;;
20653;SDS011;21083;50.898;4.902;2023-02-15T11:01:58;44.40;;;18.65;;
20653;SDS011;21083;50.898;4.902;2023-02-15T11:04:36;36.80;;;17.85;;
20653;SDS011;21083;50.898;4.902;2023-02-15T11:07:12;40.25;;;18.95;;
20653;SDS011;21083;50.898;4.902;2023-02-15T11:09:45;34.35;;;17.80;;
20653;SDS011;21083;50.898;4.902;2023-02-15T11:12:16;35.50;;;18.02;;
20653;SDS011;21083;50.898;4.902;2023-02-15T11:14:46;36.88;;;18.10;;
20653;SDS011;21083;50.898;4.902;2023-02-15T11:17:21;37.70;;;17.38;;
20653;SDS011;21083;50.898;4.902;2023-02-15T11:19:55;38.33;;;18.20;;
20653;SDS011;21083;50.898;4.902;2023-02-15T11:22:27;37.03;;;16.27;;
20653;SDS011;21083;50.898;4.902;2023-02-15T11:25:05;35.03;;;16.40;;
20653;SDS011;21083;50.898;4.902;2023-02-15T11:27:43;37.28;;;17.65;;
20653;SDS011;21083;50.898;4.902;2023-02-15T11:30:14;43.13;;;17.20;;
20653;SDS011;21083;50.898;4.902;2023-02-15T11:32:47;34.25;;;17.00;;
20653;SDS011;21083;50.898;4.902;2023-02-15T11:35:20;46.40;;;18.02;;
20653;SDS011;21083;50.898;4.902;2023-02-15T11:37:53;36.33;;;17.90;;
20653;SDS011;21083;50.898;4.902;2023-02-15T11:40:25;35.75;;;17.48;;
20653;SDS011;21083;50.898;4.902;2023-02-15T11:42:55;32.63;;;17.10;;
20653;SDS011;21083;50.898;4.902;2023-02-15T11:45:26;33.45;;;16.42;;
20653;SDS011;21083;50.898;4.902;2023-02-15T11:47:56;38.47;;;18.35;;
20653;SDS011;21083;50.898;4.902;2023-02-15T11:50:25;44.17;;;18.73;;
20653;SDS011;21083;50.898;4.902;2023-02-15T11:52:56;39.15;;;17.90;;
20653;SDS011;21083;50.898;4.902;2023-02-15T11:55:26;38.90;;;17.85;;
20653;SDS011;21083;50.898;4.902;2023-02-15T11:57:55;37.67;;;17.98;;
20653;SDS011;21083;50.898;4.902;2023-02-15T12:00:31;37.67;;;17.30;;
20653;SDS011;21083;50.898;4.902;2023-02-15T12:03:04;38.40;;;17.23;;
20653;SDS011;21083;50.898;4.902;2023-02-15T12:05:42;36.47;;;16.88;;
20653;SDS011;21083;50.898;4.902;2023-02-15T12:08:16;38.38;;;16.55;;
20653;SDS011;21083;50.898;4.902;2023-02-15T12:10:58;37.78;;;18.95;;
20653;SDS011;21083;50.898;4.902;2023-02-15T12:13:29;34.38;;;18.17;;
20653;SDS011;21083;50.898;4.902;2023-02-15T12:15:59;39.80;;;18.75;;
20653;SDS011;21083;50.898;4.902;2023-02-15T12:18:35;39.38;;;17.85;;
20653;SDS011;21083;50.898;4.902;2023-02-15T12:21:05;39.03;;;19.08;;
20653;SDS011;21083;50.898;4.902;2023-02-15T12:23:39;39.00;;;17.73;;
20653;SDS011;21083;50.898;4.902;2023-02-15T12:26:14;38.20;;;17.80;;
20653;SDS011;21083;50.898;4.902;2023-02-15T12:28:49;42.35;;;20.02;;
20653;SDS011;21083;50.898;4.902;2023-02-15T12:31:20;40.53;;;20.17;;
20653;SDS011;21083;50.898;4.902;2023-02-15T12:33:50;38.95;;;19.60;;
20653;SDS011;21083;50.898;4.902;2023-02-15T12:36:20;39.03;;;19.40;;
20653;SDS011;21083;50.898;4.902;2023-02-15T12:39:05;40.42;;;19.75;;
20653;SDS011;21083;50.898;4.902;2023-02-15T12:41:45;36.60;;;18.35;;
20653;SDS011;21083;50.898;4.902;2023-02-15T12:44:20;38.35;;;19.67;;
20653;SDS011;21083;50.898;4.902;2023-02-15T12:46:55;40.20;;;19.77;;
20653;SDS011;21083;50.898;4.902;2023-02-15T12:49:25;39.20;;;20.20;;
20653;SDS011;21083;50.898;4.902;2023-02-15T12:51:53;44.95;;;20.65;;
20653;SDS011;21083;50.898;4.902;2023-02-15T12:54:31;41.72;;;20.35;;
20653;SDS011;21083;50.898;4.902;2023-02-15T12:57:12;45.67;;;21.55;;
20653;SDS011;21083;50.898;4.902;2023-02-15T12:59:51;43.92;;;20.33;;
20653;SDS011;21083;50.898;4.902;2023-02-15T13:02:23;45.40;;;21.25;;
20653;SDS011;21083;50.898;4.902;2023-02-15T13:04:54;47.28;;;21.65;;
20653;SDS011;21083;50.898;4.902;2023-02-15T13:07:23;46.58;;;21.67;;
20653;SDS011;21083;50.898;4.902;2023-02-15T13:09:55;45.58;;;21.27;;
20653;SDS011;21083;50.898;4.902;2023-02-15T13:12:23;46.58;;;20.85;;
20653;SDS011;21083;50.898;4.902;2023-02-15T13:14:52;49.90;;;21.48;;
20653;SDS011;21083;50.898;4.902;2023-02-15T13:17:21;53.47;;;21.90;;
20653;SDS011;21083;50.898;4.902;2023-02-15T13:19:56;40.67;;;20.35;;
20653;SDS011;21083;50.898;4.902;2023-02-15T13:22:27;42.63;;;20.65;;
20653;SDS011;21083;50.898;4.902;2023-02-15T13:25:01;41.72;;;21.73;;
20653;SDS011;21083;50.898;4.902;2023-02-15T13:27:34;45.38;;;22.05;;
20653;SDS011;21083;50.898;4.902;2023-02-15T13:30:04;44.80;;;21.98;;
20653;SDS011;21083;50.898;4.902;2023-02-15T13:32:44;44.58;;;21.90;;
20653;SDS011;21083;50.898;4.902;2023-02-15T13:35:16;46.75;;;21.08;;
20653;SDS011;21083;50.898;4.902;2023-02-15T13:40:37;46.10;;;20.73;;
20653;SDS011;21083;50.898;4.902;2023-02-15T13:43:13;38.47;;;20.40;;
20653;SDS011;21083;50.898;4.902;2023-02-15T13:46:05;47.33;;;21.45;;
20653;SDS011;21083;50.898;4.902;2023-02-15T13:48:42;46.00;;;21.98;;
20653;SDS011;21083;50.898;4.902;2023-02-15T13:51:19;46.90;;;21.05;;
20653;SDS011;21083;50.898;4.902;2023-02-15T13:53:53;43.92;;;21.40;;
20653;SDS011;21083;50.898;4.902;2023-02-15T13:56:34;45.80;;;21.05;;
20653;SDS011;21083;50.898;4.902;2023-02-15T14:02:15;46.25;;;21.85;;
20653;SDS011;21083;50.898;4.902;2023-02-15T14:08:28;42.80;;;21.50;;
20653;SDS011;21083;50.898;4.902;2023-02-15T14:11:07;47.75;;;21.60;;
20653;SDS011;21083;50.898;4.902;2023-02-15T14:16:37;46.63;;;21.42;;
20653;SDS011;21083;50.898;4.902;2023-02-15T14:19:14;43.08;;;21.83;;
20653;SDS011;21083;50.898;4.902;2023-02-15T14:21:47;39.17;;;20.60;;
20653;SDS011;21083;50.898;4.902;2023-02-15T14:24:26;46.65;;;21.30;;
20653;SDS011;21083;50.898;4.902;2023-02-15T14:26:59;46.63;;;22.35;;
20653;SDS011;21083;50.898;4.902;2023-02-15T14:29:46;51.25;;;23.25;;
20653;SDS011;21083;50.898;4.902;2023-02-15T14:32:18;55.47;;;21.70;;
20653;SDS011;21083;50.898;4.902;2023-02-15T14:34:52;42.88;;;22.25;;
20653;SDS011;21083;50.898;4.902;2023-02-15T14:37:22;47.95;;;22.15;;
20653;SDS011;21083;50.898;4.902;2023-02-15T14:40:01;46.15;;;22.42;;
20653;SDS011;21083;50.898;4.902;2023-02-15T14:42:51;49.00;;;22.27;;
20653;SDS011;21083;50.898;4.902;2023-02-15T14:45:24;42.97;;;20.75;;
20653;SDS011;21083;50.898;4.902;2023-02-15T14:47:57;43.40;;;21.08;;
20653;SDS011;21083;50.898;4.902;2023-02-15T14:50:41;42.70;;;20.45;;
20653;SDS011;21083;50.898;4.902;2023-02-15T14:53:24;46.42;;;22.02;;
20653;SDS011;21083;50.898;4.902;2023-02-15T14:58:56;47.60;;;21.38;;
20653;SDS011;21083;50.898;4.902;2023-02-15T15:01:26;44.55;;;21.77;;
20653;SDS011;21083;50.898;4.902;2023-02-15T15:03:57;48.17;;;21.70;;
20653;SDS011;21083;50.898;4.902;2023-02-15T15:06:27;46.15;;;20.58;;
20653;SDS011;21083;50.898;4.902;2023-02-15T15:08:55;48.22;;;23.10;;
20653;SDS011;21083;50.898;4.902;2023-02-15T15:11:41;47.90;;;21.95;;
20653;SDS011;21083;50.898;4.902;2023-02-15T15:14:10;44.60;;;20.98;;
20653;SDS011;21083;50.898;4.902;2023-02-15T15:16:52;46.97;;;22.02;;
20653;SDS011;21083;50.898;4.902;2023-02-15T15:22:34;47.80;;;21.25;;